This is the latest recevied weather packets stored in our database for station/object K0SNA. If no packets are shown the sender has not sent any weather packets the latest 10 day(s).
| Time | Temp. | Humidity | Pressure | Rain* | Wind** | Luminosity | Snow |
|---|---|---|---|---|---|---|---|
| 1777996116 | 8.33° C | 41% | 1011.7 hPa | 0 mm | - | 162 W/m² | - |
| 1777995812 | 8.89° C | 39% | 1011.5 hPa | 0 mm | - | 622 W/m² | - |
| 1777995509 | 7.78° C | 42% | 1011.4 hPa | 0 mm | - | 603 W/m² | - |
| 1777995206 | 7.78° C | 41% | 1011.5 hPa | 0 mm | - | 575 W/m² | - |
| 1777994903 | 7.78° C | 40% | 1011.6 hPa | 0 mm | - | 552 W/m² | - |
| 1777994600 | 8.33° C | 40% | 1011.6 hPa | 0 mm | - | 566 W/m² | - |
| 1777994294 | 7.78° C | 42% | 1011.4 hPa | 0 mm | - | 532 W/m² | - |
| 1777993991 | 7.78° C | 41% | 1011.5 hPa | 0 mm | - | 509 W/m² | - |
| 1777993688 | 7.22° C | 44% | 1011.5 hPa | 0 mm | - | 496 W/m² | - |
| 1777993385 | 7.22° C | 42% | 1011.5 hPa | 0 mm | - | 483 W/m² | - |
| 1777993079 | 7.22° C | 42% | 1011.3 hPa | 0 mm | - | 470 W/m² | - |
| 1777992778 | 7.22° C | 44% | 1011.4 hPa | 0 mm | - | 456 W/m² | - |
| 1777992475 | 6.67° C | 44% | 1011.4 hPa | 0 mm | - | 445 W/m² | - |
| 1777992174 | 7.22° C | 44% | 1011.3 hPa | 0 mm | - | 432 W/m² | - |
| 1777991870 | 7.22° C | 43% | 1011.3 hPa | 0 mm | - | 419 W/m² | - |
| 1777991568 | 7.22° C | 43% | 1011.2 hPa | 0 mm | - | 405 W/m² | - |
| 1777991264 | 6.67° C | 44% | 1011.3 hPa | 0 mm | - | 392 W/m² | - |
| 1777990962 | 7.22° C | 43% | 1011.2 hPa | 0 mm | - | 383 W/m² | - |
| 1777990660 | 7.22° C | 44% | 1011.2 hPa | 0 mm | - | 369 W/m² | - |
| 1777990357 | 6.67° C | 44% | 1011.1 hPa | 0 mm | - | 353 W/m² | - |
| 1777990052 | 6.11° C | 45% | 1010.9 hPa | 0 mm | - | 339 W/m² | - |
| 1777989749 | 6.11° C | 44% | 1011.1 hPa | 0 mm | - | 329 W/m² | - |
| 1777989446 | 5.56° C | 44% | 1011 hPa | 0 mm | - | 313 W/m² | - |
| 1777989143 | 5.56° C | 44% | 1011.2 hPa | 0 mm | - | 301 W/m² | - |
| 1777988838 | 5.56° C | 44% | 1011 hPa | 0 mm | - | 288 W/m² | - |
* Rain latest hour (hover to see other rain measurements)
** Current wind speed in m/s (hover to see current wind gust speed)